sensor_id;sensor_type;location;lat;lon;timestamp;P1;durP1;ratioP1;P2;durP2;ratioP2
37873;SDS011;23709;48.078;11.684;2023-06-01T00:01:56;19.50;;;10.93;;
37873;SDS011;23709;48.078;11.684;2023-06-01T00:04:29;20.70;;;10.95;;
37873;SDS011;23709;48.078;11.684;2023-06-01T00:07:01;16.23;;;11.07;;
37873;SDS011;23709;48.078;11.684;2023-06-01T00:09:34;15.93;;;11.43;;
37873;SDS011;23709;48.078;11.684;2023-06-01T00:12:06;18.52;;;11.52;;
37873;SDS011;23709;48.078;11.684;2023-06-01T00:14:39;16.27;;;11.77;;
37873;SDS011;23709;48.078;11.684;2023-06-01T00:17:11;18.38;;;11.38;;
37873;SDS011;23709;48.078;11.684;2023-06-01T00:19:44;20.63;;;11.43;;
37873;SDS011;23709;48.078;11.684;2023-06-01T00:22:16;21.45;;;11.07;;
37873;SDS011;23709;48.078;11.684;2023-06-01T00:24:50;18.20;;;11.82;;
37873;SDS011;23709;48.078;11.684;2023-06-01T00:27:22;20.73;;;11.07;;
37873;SDS011;23709;48.078;11.684;2023-06-01T00:29:54;17.88;;;11.10;;
37873;SDS011;23709;48.078;11.684;2023-06-01T00:32:26;18.15;;;11.65;;
37873;SDS011;23709;48.078;11.684;2023-06-01T00:34:59;16.80;;;11.67;;
37873;SDS011;23709;48.078;11.684;2023-06-01T00:37:31;21.83;;;11.30;;
37873;SDS011;23709;48.078;11.684;2023-06-01T00:40:03;16.58;;;11.88;;
37873;SDS011;23709;48.078;11.684;2023-06-01T00:42:36;21.80;;;11.95;;
37873;SDS011;23709;48.078;11.684;2023-06-01T00:45:08;16.40;;;11.43;;
37873;SDS011;23709;48.078;11.684;2023-06-01T00:47:41;17.10;;;11.03;;
37873;SDS011;23709;48.078;11.684;2023-06-01T00:52:48;16.88;;;10.95;;
37873;SDS011;23709;48.078;11.684;2023-06-01T00:55:22;16.63;;;11.80;;
37873;SDS011;23709;48.078;11.684;2023-06-01T00:57:54;18.25;;;11.82;;
37873;SDS011;23709;48.078;11.684;2023-06-01T01:00:29;18.92;;;11.27;;
37873;SDS011;23709;48.078;11.684;2023-06-01T01:03:01;18.70;;;12.20;;
37873;SDS011;23709;48.078;11.684;2023-06-01T01:05:39;19.58;;;12.40;;
37873;SDS011;23709;48.078;11.684;2023-06-01T01:08:15;18.15;;;11.80;;
37873;SDS011;23709;48.078;11.684;2023-06-01T01:11:00;18.17;;;12.30;;
37873;SDS011;23709;48.078;11.684;2023-06-01T01:13:46;17.40;;;11.23;;
37873;SDS011;23709;48.078;11.684;2023-06-01T01:16:31;22.10;;;12.73;;
37873;SDS011;23709;48.078;11.684;2023-06-01T01:22:34;18.95;;;12.32;;
37873;SDS011;23709;48.078;11.684;2023-06-01T01:28:29;19.65;;;12.75;;
37873;SDS011;23709;48.078;11.684;2023-06-01T01:31:08;15.65;;;11.35;;
37873;SDS011;23709;48.078;11.684;2023-06-01T01:33:43;16.98;;;12.35;;
37873;SDS011;23709;48.078;11.684;2023-06-01T01:36:18;29.27;;;12.48;;
37873;SDS011;23709;48.078;11.684;2023-06-01T01:38:50;18.35;;;12.50;;
37873;SDS011;23709;48.078;11.684;2023-06-01T01:41:23;16.27;;;11.90;;
37873;SDS011;23709;48.078;11.684;2023-06-01T01:43:55;21.73;;;13.35;;
37873;SDS011;23709;48.078;11.684;2023-06-01T01:46:32;22.98;;;13.35;;
37873;SDS011;23709;48.078;11.684;2023-06-01T01:49:24;22.85;;;12.90;;
37873;SDS011;23709;48.078;11.684;2023-06-01T01:52:07;18.48;;;13.05;;
37873;SDS011;23709;48.078;11.684;2023-06-01T01:54:49;19.75;;;12.70;;
37873;SDS011;23709;48.078;11.684;2023-06-01T01:57:22;17.75;;;11.70;;
37873;SDS011;23709;48.078;11.684;2023-06-01T01:59:55;17.57;;;12.07;;
37873;SDS011;23709;48.078;11.684;2023-06-01T02:02:28;20.70;;;12.48;;
37873;SDS011;23709;48.078;11.684;2023-06-01T02:05:02;18.40;;;11.38;;
37873;SDS011;23709;48.078;11.684;2023-06-01T02:07:34;16.45;;;11.85;;
37873;SDS011;23709;48.078;11.684;2023-06-01T02:10:08;18.10;;;13.02;;
37873;SDS011;23709;48.078;11.684;2023-06-01T02:12:41;22.02;;;12.18;;
37873;SDS011;23709;48.078;11.684;2023-06-01T02:15:13;18.42;;;12.80;;
37873;SDS011;23709;48.078;11.684;2023-06-01T02:17:46;16.95;;;11.60;;
37873;SDS011;23709;48.078;11.684;2023-06-01T02:20:18;20.23;;;13.75;;
37873;SDS011;23709;48.078;11.684;2023-06-01T02:22:51;18.00;;;13.18;;
37873;SDS011;23709;48.078;11.684;2023-06-01T02:25:23;19.27;;;12.50;;
37873;SDS011;23709;48.078;11.684;2023-06-01T02:27:56;16.60;;;12.50;;
37873;SDS011;23709;48.078;11.684;2023-06-01T02:30:28;20.92;;;12.93;;
37873;SDS011;23709;48.078;11.684;2023-06-01T02:33:00;16.25;;;11.95;;
37873;SDS011;23709;48.078;11.684;2023-06-01T02:35:33;21.55;;;13.23;;
37873;SDS011;23709;48.078;11.684;2023-06-01T02:38:05;24.00;;;13.88;;
37873;SDS011;23709;48.078;11.684;2023-06-01T02:40:38;22.65;;;13.38;;
37873;SDS011;23709;48.078;11.684;2023-06-01T02:43:10;20.02;;;13.07;;
37873;SDS011;23709;48.078;11.684;2023-06-01T02:45:43;18.05;;;12.18;;
37873;SDS011;23709;48.078;11.684;2023-06-01T02:48:15;23.52;;;12.63;;
37873;SDS011;23709;48.078;11.684;2023-06-01T02:50:47;24.80;;;13.88;;
37873;SDS011;23709;48.078;11.684;2023-06-01T02:53:19;19.45;;;13.15;;
37873;SDS011;23709;48.078;11.684;2023-06-01T02:55:52;21.38;;;14.30;;
37873;SDS011;23709;48.078;11.684;2023-06-01T02:58:42;21.60;;;15.20;;
37873;SDS011;23709;48.078;11.684;2023-06-01T03:01:29;21.98;;;14.20;;
37873;SDS011;23709;48.078;11.684;2023-06-01T03:04:08;17.63;;;13.18;;
37873;SDS011;23709;48.078;11.684;2023-06-01T03:06:42;18.45;;;13.85;;
37873;SDS011;23709;48.078;11.684;2023-06-01T03:09:30;19.48;;;14.18;;
37873;SDS011;23709;48.078;11.684;2023-06-01T03:12:11;22.80;;;14.45;;
37873;SDS011;23709;48.078;11.684;2023-06-01T03:14:44;20.30;;;13.30;;
37873;SDS011;23709;48.078;11.684;2023-06-01T03:17:16;16.98;;;12.45;;
37873;SDS011;23709;48.078;11.684;2023-06-01T03:19:49;19.88;;;12.77;;
37873;SDS011;23709;48.078;11.684;2023-06-01T03:22:25;20.88;;;13.07;;
37873;SDS011;23709;48.078;11.684;2023-06-01T03:24:58;18.70;;;13.82;;
37873;SDS011;23709;48.078;11.684;2023-06-01T03:27:35;22.85;;;14.13;;
37873;SDS011;23709;48.078;11.684;2023-06-01T03:30:08;22.17;;;14.80;;
37873;SDS011;23709;48.078;11.684;2023-06-01T03:32:43;20.92;;;13.98;;
37873;SDS011;23709;48.078;11.684;2023-06-01T03:35:16;18.87;;;12.93;;
37873;SDS011;23709;48.078;11.684;2023-06-01T03:37:49;18.30;;;13.70;;
37873;SDS011;23709;48.078;11.684;2023-06-01T03:40:23;20.02;;;13.63;;
37873;SDS011;23709;48.078;11.684;2023-06-01T03:42:55;18.17;;;13.23;;
37873;SDS011;23709;48.078;11.684;2023-06-01T03:45:28;19.75;;;13.10;;
37873;SDS011;23709;48.078;11.684;2023-06-01T03:48:01;19.48;;;13.23;;
37873;SDS011;23709;48.078;11.684;2023-06-01T03:50:34;21.35;;;13.60;;
37873;SDS011;23709;48.078;11.684;2023-06-01T03:53:07;20.00;;;13.27;;
37873;SDS011;23709;48.078;11.684;2023-06-01T03:55:39;19.30;;;14.23;;
37873;SDS011;23709;48.078;11.684;2023-06-01T03:58:34;20.70;;;13.43;;
37873;SDS011;23709;48.078;11.684;2023-06-01T04:01:07;19.33;;;14.00;;
37873;SDS011;23709;48.078;11.684;2023-06-01T04:03:42;22.33;;;13.68;;
37873;SDS011;23709;48.078;11.684;2023-06-01T04:08:51;15.23;;;12.10;;
37873;SDS011;23709;48.078;11.684;2023-06-01T04:11:27;18.67;;;13.73;;
37873;SDS011;23709;48.078;11.684;2023-06-01T04:13:59;19.95;;;13.73;;
37873;SDS011;23709;48.078;11.684;2023-06-01T04:16:32;20.13;;;13.40;;
37873;SDS011;23709;48.078;11.684;2023-06-01T04:19:04;18.38;;;12.55;;
37873;SDS011;23709;48.078;11.684;2023-06-01T04:21:36;18.40;;;13.05;;
37873;SDS011;23709;48.078;11.684;2023-06-01T04:24:09;19.30;;;13.45;;
37873;SDS011;23709;48.078;11.684;2023-06-01T04:26:41;19.23;;;12.52;;
37873;SDS011;23709;48.078;11.684;2023-06-01T04:29:14;21.33;;;13.00;;
37873;SDS011;23709;48.078;11.684;2023-06-01T04:31:46;20.70;;;14.88;;
37873;SDS011;23709;48.078;11.684;2023-06-01T04:34:19;22.40;;;14.68;;
37873;SDS011;23709;48.078;11.684;2023-06-01T04:36:52;20.73;;;14.57;;
37873;SDS011;23709;48.078;11.684;2023-06-01T04:39:26;20.05;;;13.82;;
37873;SDS011;23709;48.078;11.684;2023-06-01T04:41:59;18.52;;;13.52;;
37873;SDS011;23709;48.078;11.684;2023-06-01T04:44:33;18.65;;;13.20;;
37873;SDS011;23709;48.078;11.684;2023-06-01T04:47:08;19.55;;;12.88;;
37873;SDS011;23709;48.078;11.684;2023-06-01T04:49:40;19.80;;;14.63;;
37873;SDS011;23709;48.078;11.684;2023-06-01T04:52:13;21.58;;;15.88;;
37873;SDS011;23709;48.078;11.684;2023-06-01T04:54:46;25.05;;;14.40;;
37873;SDS011;23709;48.078;11.684;2023-06-01T04:57:18;22.60;;;14.98;;
37873;SDS011;23709;48.078;11.684;2023-06-01T04:59:51;21.08;;;14.52;;
37873;SDS011;23709;48.078;11.684;2023-06-01T05:02:25;24.88;;;15.27;;
37873;SDS011;23709;48.078;11.684;2023-06-01T05:04:58;25.95;;;15.55;;
37873;SDS011;23709;48.078;11.684;2023-06-01T05:07:30;20.23;;;14.60;;
37873;SDS011;23709;48.078;11.684;2023-06-01T05:10:03;22.50;;;15.88;;
37873;SDS011;23709;48.078;11.684;2023-06-01T05:12:55;27.90;;;16.42;;
37873;SDS011;23709;48.078;11.684;2023-06-01T05:15:28;26.30;;;15.25;;
37873;SDS011;23709;48.078;11.684;2023-06-01T05:18:02;34.30;;;15.13;;
37873;SDS011;23709;48.078;11.684;2023-06-01T05:20:34;24.02;;;15.77;;
37873;SDS011;23709;48.078;11.684;2023-06-01T05:23:07;25.30;;;14.27;;
37873;SDS011;23709;48.078;11.684;2023-06-01T05:25:39;21.65;;;12.93;;
37873;SDS011;23709;48.078;11.684;2023-06-01T05:28:12;22.63;;;14.63;;
37873;SDS011;23709;48.078;11.684;2023-06-01T05:30:45;21.52;;;14.13;;
37873;SDS011;23709;48.078;11.684;2023-06-01T05:33:17;20.97;;;13.40;;
37873;SDS011;23709;48.078;11.684;2023-06-01T05:35:49;20.30;;;13.68;;
37873;SDS011;23709;48.078;11.684;2023-06-01T05:38:25;20.92;;;13.70;;
37873;SDS011;23709;48.078;11.684;2023-06-01T05:40:57;24.15;;;15.38;;
37873;SDS011;23709;48.078;11.684;2023-06-01T05:43:30;22.35;;;14.45;;
37873;SDS011;23709;48.078;11.684;2023-06-01T05:46:06;27.48;;;14.57;;
37873;SDS011;23709;48.078;11.684;2023-06-01T05:48:38;21.13;;;13.10;;
37873;SDS011;23709;48.078;11.684;2023-06-01T05:51:12;19.05;;;12.38;;
37873;SDS011;23709;48.078;11.684;2023-06-01T05:53:45;17.83;;;11.95;;
37873;SDS011;23709;48.078;11.684;2023-06-01T05:56:18;18.98;;;12.65;;
37873;SDS011;23709;48.078;11.684;2023-06-01T05:58:51;18.85;;;12.23;;
37873;SDS011;23709;48.078;11.684;2023-06-01T06:01:25;21.30;;;11.75;;
37873;SDS011;23709;48.078;11.684;2023-06-01T06:03:58;23.33;;;12.20;;
37873;SDS011;23709;48.078;11.684;2023-06-01T06:06:31;24.52;;;12.55;;
37873;SDS011;23709;48.078;11.684;2023-06-01T06:09:03;19.55;;;11.65;;
37873;SDS011;23709;48.078;11.684;2023-06-01T06:11:36;17.25;;;12.35;;
37873;SDS011;23709;48.078;11.684;2023-06-01T06:14:10;17.35;;;11.68;;
37873;SDS011;23709;48.078;11.684;2023-06-01T06:16:43;20.05;;;11.70;;
37873;SDS011;23709;48.078;11.684;2023-06-01T06:19:15;18.10;;;12.20;;
37873;SDS011;23709;48.078;11.684;2023-06-01T06:21:48;21.33;;;11.88;;
37873;SDS011;23709;48.078;11.684;2023-06-01T06:24:20;20.75;;;11.85;;
37873;SDS011;23709;48.078;11.684;2023-06-01T06:26:53;20.13;;;11.48;;
37873;SDS011;23709;48.078;11.684;2023-06-01T06:29:25;17.75;;;11.80;;
37873;SDS011;23709;48.078;11.684;2023-06-01T06:31:57;17.45;;;10.73;;
37873;SDS011;23709;48.078;11.684;2023-06-01T06:34:29;18.15;;;11.73;;
37873;SDS011;23709;48.078;11.684;2023-06-01T06:37:08;20.30;;;11.80;;
37873;SDS011;23709;48.078;11.684;2023-06-01T06:39:43;20.42;;;10.90;;
37873;SDS011;23709;48.078;11.684;2023-06-01T06:42:16;19.35;;;12.32;;
37873;SDS011;23709;48.078;11.684;2023-06-01T06:47:22;19.67;;;11.80;;
37873;SDS011;23709;48.078;11.684;2023-06-01T06:49:56;20.25;;;11.30;;
37873;SDS011;23709;48.078;11.684;2023-06-01T06:52:29;21.02;;;12.57;;
37873;SDS011;23709;48.078;11.684;2023-06-01T06:55:02;15.52;;;10.80;;
37873;SDS011;23709;48.078;11.684;2023-06-01T06:57:35;16.67;;;11.27;;
37873;SDS011;23709;48.078;11.684;2023-06-01T07:00:08;17.77;;;11.00;;
37873;SDS011;23709;48.078;11.684;2023-06-01T07:02:46;20.05;;;11.98;;
37873;SDS011;23709;48.078;11.684;2023-06-01T07:05:19;19.67;;;11.27;;
37873;SDS011;23709;48.078;11.684;2023-06-01T07:07:52;21.65;;;11.85;;
37873;SDS011;23709;48.078;11.684;2023-06-01T07:10:28;18.27;;;10.75;;
37873;SDS011;23709;48.078;11.684;2023-06-01T07:13:01;26.35;;;12.15;;
37873;SDS011;23709;48.078;11.684;2023-06-01T07:15:34;22.63;;;12.02;;
37873;SDS011;23709;48.078;11.684;2023-06-01T07:18:06;17.90;;;11.38;;
37873;SDS011;23709;48.078;11.684;2023-06-01T07:20:40;22.33;;;11.18;;
37873;SDS011;23709;48.078;11.684;2023-06-01T07:23:12;23.75;;;11.80;;
37873;SDS011;23709;48.078;11.684;2023-06-01T07:25:47;19.25;;;11.15;;
37873;SDS011;23709;48.078;11.684;2023-06-01T07:30:58;19.95;;;12.00;;
37873;SDS011;23709;48.078;11.684;2023-06-01T07:33:34;19.75;;;11.55;;
37873;SDS011;23709;48.078;11.684;2023-06-01T07:36:09;15.93;;;11.45;;
37873;SDS011;23709;48.078;11.684;2023-06-01T07:41:17;20.58;;;10.98;;
37873;SDS011;23709;48.078;11.684;2023-06-01T07:43:49;24.95;;;11.18;;
37873;SDS011;23709;48.078;11.684;2023-06-01T07:46:23;18.30;;;10.30;;
37873;SDS011;23709;48.078;11.684;2023-06-01T07:48:55;16.52;;;11.63;;
37873;SDS011;23709;48.078;11.684;2023-06-01T07:51:28;18.50;;;10.95;;
37873;SDS011;23709;48.078;11.684;2023-06-01T07:54:02;18.23;;;10.18;;
37873;SDS011;23709;48.078;11.684;2023-06-01T07:56:35;14.40;;;9.25;;
37873;SDS011;23709;48.078;11.684;2023-06-01T07:59:08;19.35;;;9.68;;
37873;SDS011;23709;48.078;11.684;2023-06-01T08:01:41;15.60;;;10.15;;
37873;SDS011;23709;48.078;11.684;2023-06-01T08:04:14;21.20;;;10.20;;
37873;SDS011;23709;48.078;11.684;2023-06-01T08:06:49;19.23;;;10.45;;
37873;SDS011;23709;48.078;11.684;2023-06-01T08:09:24;17.92;;;10.32;;
37873;SDS011;23709;48.078;11.684;2023-06-01T08:11:57;19.13;;;9.90;;
37873;SDS011;23709;48.078;11.684;2023-06-01T08:14:30;16.50;;;11.03;;
37873;SDS011;23709;48.078;11.684;2023-06-01T08:17:06;17.42;;;10.25;;
37873;SDS011;23709;48.078;11.684;2023-06-01T08:19:39;15.35;;;9.77;;
37873;SDS011;23709;48.078;11.684;2023-06-01T08:22:13;17.83;;;10.45;;
37873;SDS011;23709;48.078;11.684;2023-06-01T08:24:47;20.13;;;10.40;;
37873;SDS011;23709;48.078;11.684;2023-06-01T08:27:20;16.87;;;9.80;;
37873;SDS011;23709;48.078;11.684;2023-06-01T08:29:56;15.85;;;10.07;;
37873;SDS011;23709;48.078;11.684;2023-06-01T08:32:28;17.25;;;9.77;;
37873;SDS011;23709;48.078;11.684;2023-06-01T08:35:01;12.30;;;8.90;;
37873;SDS011;23709;48.078;11.684;2023-06-01T08:37:33;18.10;;;9.32;;
37873;SDS011;23709;48.078;11.684;2023-06-01T08:40:06;17.77;;;9.77;;
37873;SDS011;23709;48.078;11.684;2023-06-01T08:42:53;16.13;;;8.65;;
37873;SDS011;23709;48.078;11.684;2023-06-01T08:45:31;15.02;;;9.95;;
37873;SDS011;23709;48.078;11.684;2023-06-01T08:50:40;18.02;;;9.27;;
37873;SDS011;23709;48.078;11.684;2023-06-01T08:53:12;14.93;;;9.45;;
37873;SDS011;23709;48.078;11.684;2023-06-01T08:55:50;15.82;;;8.77;;
37873;SDS011;23709;48.078;11.684;2023-06-01T08:58:26;11.38;;;8.95;;
37873;SDS011;23709;48.078;11.684;2023-06-01T09:00:59;16.40;;;9.63;;
37873;SDS011;23709;48.078;11.684;2023-06-01T09:03:31;16.13;;;9.90;;
37873;SDS011;23709;48.078;11.684;2023-06-01T09:06:04;13.70;;;8.88;;
37873;SDS011;23709;48.078;11.684;2023-06-01T09:08:36;14.38;;;8.40;;
37873;SDS011;23709;48.078;11.684;2023-06-01T09:11:09;11.50;;;7.85;;
37873;SDS011;23709;48.078;11.684;2023-06-01T09:13:41;13.02;;;9.18;;
37873;SDS011;23709;48.078;11.684;2023-06-01T09:16:13;13.52;;;9.52;;
37873;SDS011;23709;48.078;11.684;2023-06-01T09:18:52;15.13;;;8.43;;
37873;SDS011;23709;48.078;11.684;2023-06-01T09:21:25;15.75;;;8.38;;
37873;SDS011;23709;48.078;11.684;2023-06-01T09:24:17;16.30;;;9.07;;
37873;SDS011;23709;48.078;11.684;2023-06-01T09:26:50;11.02;;;8.77;;
37873;SDS011;23709;48.078;11.684;2023-06-01T09:29:23;15.10;;;9.73;;
37873;SDS011;23709;48.078;11.684;2023-06-01T09:31:55;19.92;;;9.48;;
37873;SDS011;23709;48.078;11.684;2023-06-01T09:34:27;13.77;;;9.65;;
37873;SDS011;23709;48.078;11.684;2023-06-01T09:37:04;15.15;;;8.93;;
37873;SDS011;23709;48.078;11.684;2023-06-01T09:39:38;16.52;;;9.45;;
37873;SDS011;23709;48.078;11.684;2023-06-01T09:42:11;12.23;;;8.93;;
37873;SDS011;23709;48.078;11.684;2023-06-01T09:44:45;12.30;;;8.93;;
37873;SDS011;23709;48.078;11.684;2023-06-01T09:47:17;16.27;;;9.15;;
37873;SDS011;23709;48.078;11.684;2023-06-01T09:49:49;14.45;;;9.20;;
37873;SDS011;23709;48.078;11.684;2023-06-01T09:52:22;12.85;;;8.60;;
37873;SDS011;23709;48.078;11.684;2023-06-01T09:54:54;10.93;;;8.20;;
37873;SDS011;23709;48.078;11.684;2023-06-01T09:57:30;17.98;;;8.80;;
37873;SDS011;23709;48.078;11.684;2023-06-01T10:00:03;14.95;;;8.80;;
37873;SDS011;23709;48.078;11.684;2023-06-01T10:02:39;15.07;;;8.65;;
37873;SDS011;23709;48.078;11.684;2023-06-01T10:05:13;12.88;;;9.10;;
37873;SDS011;23709;48.078;11.684;2023-06-01T10:07:46;17.33;;;9.27;;
37873;SDS011;23709;48.078;11.684;2023-06-01T10:10:20;12.13;;;8.32;;
37873;SDS011;23709;48.078;11.684;2023-06-01T10:12:52;13.02;;;8.93;;
37873;SDS011;23709;48.078;11.684;2023-06-01T10:15:24;16.00;;;9.30;;
37873;SDS011;23709;48.078;11.684;2023-06-01T10:18:02;15.55;;;8.70;;
37873;SDS011;23709;48.078;11.684;2023-06-01T10:20:36;14.75;;;8.85;;
37873;SDS011;23709;48.078;11.684;2023-06-01T10:23:09;15.75;;;8.90;;
37873;SDS011;23709;48.078;11.684;2023-06-01T10:26:03;12.98;;;7.90;;
37873;SDS011;23709;48.078;11.684;2023-06-01T10:28:43;11.18;;;7.85;;
37873;SDS011;23709;48.078;11.684;2023-06-01T10:31:36;11.52;;;8.98;;
37873;SDS011;23709;48.078;11.684;2023-06-01T10:34:13;12.05;;;8.25;;
37873;SDS011;23709;48.078;11.684;2023-06-01T10:39:25;13.45;;;7.78;;
37873;SDS011;23709;48.078;11.684;2023-06-01T10:41:58;15.38;;;7.68;;
37873;SDS011;23709;48.078;11.684;2023-06-01T10:44:50;13.00;;;6.95;;
37873;SDS011;23709;48.078;11.684;2023-06-01T10:52:31;16.10;;;7.50;;
37873;SDS011;23709;48.078;11.684;2023-06-01T10:57:37;13.60;;;8.23;;
37873;SDS011;23709;48.078;11.684;2023-06-01T11:03:03;10.00;;;7.07;;
37873;SDS011;23709;48.078;11.684;2023-06-01T11:05:39;17.25;;;6.90;;
37873;SDS011;23709;48.078;11.684;2023-06-01T11:10:55;9.90;;;7.43;;
37873;SDS011;23709;48.078;11.684;2023-06-01T11:13:33;9.35;;;7.30;;
37873;SDS011;23709;48.078;11.684;2023-06-01T11:21:30;14.18;;;7.60;;
37873;SDS011;23709;48.078;11.684;2023-06-01T11:26:46;8.65;;;7.38;;
37873;SDS011;23709;48.078;11.684;2023-06-01T11:29:23;9.15;;;7.15;;
37873;SDS011;23709;48.078;11.684;2023-06-01T11:31:57;11.30;;;7.75;;
37873;SDS011;23709;48.078;11.684;2023-06-01T11:34:37;10.07;;;7.95;;
37873;SDS011;23709;48.078;11.684;2023-06-01T11:37:14;11.73;;;7.05;;
37873;SDS011;23709;48.078;11.684;2023-06-01T11:39:47;10.50;;;7.50;;
37873;SDS011;23709;48.078;11.684;2023-06-01T11:42:20;9.68;;;6.93;;
37873;SDS011;23709;48.078;11.684;2023-06-01T11:44:57;10.88;;;7.18;;
37873;SDS011;23709;48.078;11.684;2023-06-01T11:47:30;16.13;;;7.53;;
37873;SDS011;23709;48.078;11.684;2023-06-01T11:50:03;9.05;;;7.60;;
37873;SDS011;23709;48.078;11.684;2023-06-01T11:52:36;9.68;;;6.93;;
37873;SDS011;23709;48.078;11.684;2023-06-01T11:55:08;11.07;;;7.35;;
37873;SDS011;23709;48.078;11.684;2023-06-01T11:57:42;10.40;;;7.93;;
37873;SDS011;23709;48.078;11.684;2023-06-01T12:00:14;12.55;;;7.05;;
37873;SDS011;23709;48.078;11.684;2023-06-01T12:02:46;9.73;;;7.18;;
37873;SDS011;23709;48.078;11.684;2023-06-01T12:05:20;11.70;;;7.18;;
37873;SDS011;23709;48.078;11.684;2023-06-01T12:07:53;11.37;;;7.47;;
37873;SDS011;23709;48.078;11.684;2023-06-01T12:12:59;10.65;;;7.20;;
37873;SDS011;23709;48.078;11.684;2023-06-01T12:15:31;8.80;;;6.67;;
37873;SDS011;23709;48.078;11.684;2023-06-01T12:18:03;10.98;;;6.93;;
37873;SDS011;23709;48.078;11.684;2023-06-01T12:20:37;12.43;;;7.45;;
37873;SDS011;23709;48.078;11.684;2023-06-01T12:25:53;13.10;;;7.03;;
37873;SDS011;23709;48.078;11.684;2023-06-01T12:28:27;9.57;;;7.28;;
37873;SDS011;23709;48.078;11.684;2023-06-01T12:31:08;13.70;;;7.40;;
37873;SDS011;23709;48.078;11.684;2023-06-01T12:33:45;11.65;;;7.18;;
37873;SDS011;23709;48.078;11.684;2023-06-01T12:36:29;9.95;;;7.07;;
37873;SDS011;23709;48.078;11.684;2023-06-01T12:39:03;9.82;;;7.70;;
37873;SDS011;23709;48.078;11.684;2023-06-01T12:41:46;11.88;;;7.68;;
37873;SDS011;23709;48.078;11.684;2023-06-01T12:44:20;11.02;;;7.13;;
37873;SDS011;23709;48.078;11.684;2023-06-01T12:49:29;10.60;;;6.88;;
37873;SDS011;23709;48.078;11.684;2023-06-01T12:52:02;13.43;;;7.25;;
37873;SDS011;23709;48.078;11.684;2023-06-01T12:54:34;20.27;;;7.47;;
37873;SDS011;23709;48.078;11.684;2023-06-01T12:57:11;13.43;;;6.97;;
37873;SDS011;23709;48.078;11.684;2023-06-01T12:59:45;9.00;;;6.60;;
37873;SDS011;23709;48.078;11.684;2023-06-01T13:02:17;11.82;;;7.20;;
37873;SDS011;23709;48.078;11.684;2023-06-01T13:04:50;7.70;;;6.13;;
37873;SDS011;23709;48.078;11.684;2023-06-01T13:07:22;12.40;;;6.93;;
37873;SDS011;23709;48.078;11.684;2023-06-01T13:09:55;10.02;;;6.70;;
37873;SDS011;23709;48.078;11.684;2023-06-01T13:12:29;10.82;;;6.38;;
37873;SDS011;23709;48.078;11.684;2023-06-01T13:15:01;13.43;;;6.53;;
37873;SDS011;23709;48.078;11.684;2023-06-01T13:17:34;9.75;;;6.72;;
37873;SDS011;23709;48.078;11.684;2023-06-01T13:20:07;10.87;;;6.63;;
37873;SDS011;23709;48.078;11.684;2023-06-01T13:22:39;11.48;;;7.00;;
37873;SDS011;23709;48.078;11.684;2023-06-01T13:25:11;13.52;;;6.65;;
37873;SDS011;23709;48.078;11.684;2023-06-01T13:27:46;10.68;;;6.88;;
37873;SDS011;23709;48.078;11.684;2023-06-01T13:30:19;9.10;;;6.80;;
37873;SDS011;23709;48.078;11.684;2023-06-01T13:32:51;11.37;;;6.83;;
37873;SDS011;23709;48.078;11.684;2023-06-01T13:35:23;11.13;;;7.03;;
37873;SDS011;23709;48.078;11.684;2023-06-01T13:37:55;9.35;;;7.13;;
37873;SDS011;23709;48.078;11.684;2023-06-01T13:40:28;11.23;;;7.57;;
37873;SDS011;23709;48.078;11.684;2023-06-01T13:43:00;9.13;;;6.43;;
37873;SDS011;23709;48.078;11.684;2023-06-01T13:45:32;8.77;;;7.15;;
37873;SDS011;23709;48.078;11.684;2023-06-01T13:48:05;9.63;;;7.10;;
37873;SDS011;23709;48.078;11.684;2023-06-01T13:50:37;8.57;;;6.57;;
37873;SDS011;23709;48.078;11.684;2023-06-01T13:53:11;10.40;;;6.30;;
37873;SDS011;23709;48.078;11.684;2023-06-01T13:55:43;15.00;;;6.47;;
37873;SDS011;23709;48.078;11.684;2023-06-01T13:58:16;10.05;;;6.55;;
37873;SDS011;23709;48.078;11.684;2023-06-01T14:00:48;10.82;;;7.05;;
37873;SDS011;23709;48.078;11.684;2023-06-01T14:03:20;11.80;;;6.23;;
37873;SDS011;23709;48.078;11.684;2023-06-01T14:05:52;9.73;;;6.70;;
37873;SDS011;23709;48.078;11.684;2023-06-01T14:08:28;15.40;;;6.60;;
37873;SDS011;23709;48.078;11.684;2023-06-01T14:11:01;11.77;;;6.40;;
37873;SDS011;23709;48.078;11.684;2023-06-01T14:13:33;11.47;;;6.83;;
37873;SDS011;23709;48.078;11.684;2023-06-01T14:16:05;7.45;;;6.05;;
37873;SDS011;23709;48.078;11.684;2023-06-01T14:18:38;9.68;;;6.45;;
37873;SDS011;23709;48.078;11.684;2023-06-01T14:21:10;10.67;;;6.83;;
37873;SDS011;23709;48.078;11.684;2023-06-01T14:23:42;8.30;;;5.78;;
37873;SDS011;23709;48.078;11.684;2023-06-01T14:26:16;7.72;;;5.50;;
37873;SDS011;23709;48.078;11.684;2023-06-01T14:28:48;8.55;;;6.05;;
37873;SDS011;23709;48.078;11.684;2023-06-01T14:31:20;7.13;;;5.70;;
37873;SDS011;23709;48.078;11.684;2023-06-01T14:33:53;9.07;;;6.05;;
37873;SDS011;23709;48.078;11.684;2023-06-01T14:36:25;7.85;;;5.70;;
37873;SDS011;23709;48.078;11.684;2023-06-01T14:39:16;11.55;;;6.07;;
37873;SDS011;23709;48.078;11.684;2023-06-01T14:41:48;12.77;;;6.45;;
37873;SDS011;23709;48.078;11.684;2023-06-01T14:44:21;10.07;;;5.72;;
37873;SDS011;23709;48.078;11.684;2023-06-01T14:46:53;9.38;;;5.50;;
37873;SDS011;23709;48.078;11.684;2023-06-01T14:49:25;12.80;;;7.10;;
37873;SDS011;23709;48.078;11.684;2023-06-01T14:52:13;7.43;;;5.55;;
37873;SDS011;23709;48.078;11.684;2023-06-01T14:54:45;8.57;;;6.15;;
37873;SDS011;23709;48.078;11.684;2023-06-01T14:57:18;15.70;;;5.87;;
37873;SDS011;23709;48.078;11.684;2023-06-01T14:59:50;10.30;;;5.45;;
37873;SDS011;23709;48.078;11.684;2023-06-01T15:02:35;8.65;;;5.65;;
37873;SDS011;23709;48.078;11.684;2023-06-01T15:05:07;8.77;;;6.17;;
37873;SDS011;23709;48.078;11.684;2023-06-01T15:07:40;8.75;;;6.05;;
37873;SDS011;23709;48.078;11.684;2023-06-01T15:10:12;6.72;;;5.78;;
37873;SDS011;23709;48.078;11.684;2023-06-01T15:12:44;12.38;;;5.97;;
37873;SDS011;23709;48.078;11.684;2023-06-01T15:15:16;9.48;;;6.57;;
37873;SDS011;23709;48.078;11.684;2023-06-01T15:17:49;11.30;;;5.93;;
37873;SDS011;23709;48.078;11.684;2023-06-01T15:20:22;9.60;;;6.30;;
37873;SDS011;23709;48.078;11.684;2023-06-01T15:22:54;10.98;;;6.45;;
37873;SDS011;23709;48.078;11.684;2023-06-01T15:25:27;10.48;;;6.30;;
37873;SDS011;23709;48.078;11.684;2023-06-01T15:27:59;11.80;;;5.97;;
37873;SDS011;23709;48.078;11.684;2023-06-01T15:30:31;11.15;;;6.97;;
37873;SDS011;23709;48.078;11.684;2023-06-01T15:33:05;8.73;;;6.28;;
37873;SDS011;23709;48.078;11.684;2023-06-01T15:35:39;11.25;;;6.25;;
37873;SDS011;23709;48.078;11.684;2023-06-01T15:38:11;8.02;;;5.78;;
37873;SDS011;23709;48.078;11.684;2023-06-01T15:40:47;8.18;;;5.75;;
37873;SDS011;23709;48.078;11.684;2023-06-01T15:43:19;10.40;;;5.95;;
37873;SDS011;23709;48.078;11.684;2023-06-01T15:45:52;11.70;;;6.00;;
37873;SDS011;23709;48.078;11.684;2023-06-01T15:48:24;10.75;;;5.68;;
37873;SDS011;23709;48.078;11.684;2023-06-01T15:50:56;8.57;;;5.70;;